createdAt,value
2023-01-30T00:02:07.800Z,101936.34
2023-01-30T00:04:36.515Z,101932.09
2023-01-30T00:07:06.978Z,101928.66
2023-01-30T00:09:35.568Z,101930.66
2023-01-30T00:12:03.894Z,101928.31
2023-01-30T00:14:32.501Z,101932.09
2023-01-30T00:17:01.143Z,101946.13
2023-01-30T00:19:29.902Z,101933.97
2023-01-30T00:21:58.682Z,101933.09
2023-01-30T00:24:28.806Z,101934.81
2023-01-30T00:26:57.373Z,101936.56
2023-01-30T00:29:26.145Z,101947.91
2023-01-30T00:31:54.784Z,101945.19
2023-01-30T00:34:23.296Z,101931.19
2023-01-30T00:37:07.167Z,101942.34
2023-01-30T00:39:38.681Z,101949.22
2023-01-30T00:42:24.963Z,101943.97
2023-01-30T00:45:11.090Z,101941.19
2023-01-30T00:47:40.800Z,101945.53
2023-01-30T00:50:10.852Z,101934.25
2023-01-30T00:52:39.782Z,101942.16
2023-01-30T00:55:10.604Z,101940.66
2023-01-30T00:57:38.939Z,101937.25
2023-01-30T01:00:11.653Z,101932.13
2023-01-30T01:02:41.325Z,101939.06
2023-01-30T01:05:10.621Z,101946.91
2023-01-30T01:07:42.154Z,101943.13
2023-01-30T01:10:17.084Z,101949.22
2023-01-30T01:12:45.767Z,101953.56
2023-01-30T01:15:15.832Z,101956.13
2023-01-30T01:17:45.922Z,101960.47
2023-01-30T01:20:15.291Z,101951.66
2023-01-30T01:22:45.289Z,101949.88
2023-01-30T01:25:15.396Z,101956.81
2023-01-30T01:27:44.173Z,101952.44
2023-01-30T01:30:14.301Z,101955.13
2023-01-30T01:32:43.044Z,101950.56
2023-01-30T01:35:12.832Z,101951.81
2023-01-30T01:37:41.495Z,101946.94
2023-01-30T01:40:34.953Z,101954.91
2023-01-30T01:43:15.806Z,101956.78
2023-01-30T01:45:45.288Z,101965.72
2023-01-30T01:48:20.606Z,101965.88
2023-01-30T01:50:55.263Z,101968.59
2023-01-30T01:53:29.944Z,101969.53
2023-01-30T01:56:01.580Z,101964.53
2023-01-30T01:58:38.732Z,101969.84
2023-01-30T02:01:09.566Z,101972.44
2023-01-30T02:03:43.040Z,101976.09
2023-01-30T02:06:13.475Z,101978.78
2023-01-30T02:08:47.316Z,101974.47
2023-01-30T02:11:23.153Z,101976.38
2023-01-30T02:13:53.893Z,101983.44
2023-01-30T02:16:22.873Z,101991.34
2023-01-30T02:18:52.335Z,101989.63
2023-01-30T02:21:51.652Z,101989.63
2023-01-30T02:24:46.386Z,101984.16
2023-01-30T02:27:30.251Z,101982.22
2023-01-30T02:30:28.493Z,101996.72
2023-01-30T02:33:10.837Z,101984.25
2023-01-30T02:35:50.552Z,101980.63
2023-01-30T02:38:32.792Z,101986.72
2023-01-30T02:41:16.069Z,101987.47
2023-01-30T02:43:56.904Z,101994.41
2023-01-30T02:46:32.459Z,101991.66
2023-01-30T02:49:09.758Z,101996.00
2023-01-30T02:51:41.012Z,101984.66
2023-01-30T02:54:12.570Z,101990.63
2023-01-30T02:56:47.332Z,101997.59
2023-01-30T02:59:20.149Z,101992.38
2023-01-30T03:02:16.314Z,101990.47
2023-01-30T03:05:16.984Z,101998.34
2023-01-30T03:07:52.635Z,102005.19
2023-01-30T03:10:31.834Z,102000.78
2023-01-30T03:13:08.970Z,102010.31
2023-01-30T03:15:44.182Z,102004.91
2023-01-30T03:18:13.471Z,102007.63
2023-01-30T03:20:43.943Z,102008.47
2023-01-30T03:23:12.681Z,102024.88
2023-01-30T03:25:45.130Z,102040.56
2023-01-30T03:28:17.731Z,102023.13
2023-01-30T03:30:46.339Z,102038.78
2023-01-30T03:33:16.843Z,102024.88
2023-01-30T03:35:47.202Z,102026.66
2023-01-30T03:38:16.460Z,102036.22
2023-01-30T03:40:45.128Z,102027.50
2023-01-30T03:43:13.688Z,102031.94
2023-01-30T03:45:42.296Z,102022.28
2023-01-30T03:48:10.889Z,102035.38
2023-01-30T03:50:39.409Z,102033.59
2023-01-30T03:53:09.620Z,102038.84
2023-01-30T03:55:39.529Z,102047.66
2023-01-30T03:58:08.473Z,102045.09
2023-01-30T04:00:37.294Z,102050.44
2023-01-30T04:03:05.954Z,102050.50
2023-01-30T04:05:34.725Z,102056.66
2023-01-30T04:08:03.681Z,102056.75
2023-01-30T04:10:33.891Z,102054.13
2023-01-30T04:13:02.653Z,102059.31
2023-01-30T04:15:31.263Z,102058.53
2023-01-30T04:18:01.011Z,102065.47
2023-01-30T04:20:29.971Z,102062.66
2023-01-30T04:22:58.490Z,102056.50
2023-01-30T04:25:27.090Z,102052.19
2023-01-30T04:27:56.934Z,102052.91
2023-01-30T04:30:25.658Z,102049.66
2023-01-30T04:32:54.640Z,102046.34
2023-01-30T04:35:23.337Z,102046.53
2023-01-30T04:37:52.056Z,102037.94
2023-01-30T04:40:21.780Z,102036.41
2023-01-30T04:42:51.519Z,102043.59
2023-01-30T04:45:21.642Z,102041.03
2023-01-30T04:47:50.706Z,102038.56
2023-01-30T04:50:19.590Z,102055.16
2023-01-30T04:52:48.542Z,102057.78
2023-01-30T04:55:17.250Z,102052.75
2023-01-30T04:57:46.025Z,102046.66
2023-01-30T05:00:15.374Z,102051.84
2023-01-30T05:02:45.363Z,102046.56
2023-01-30T05:05:14.281Z,102050.75
2023-01-30T05:07:43.612Z,102044.69
2023-01-30T05:10:13.660Z,102056.84
2023-01-30T05:12:42.447Z,102071.78
2023-01-30T05:15:12.173Z,102075.25
2023-01-30T05:17:43.085Z,102067.31
2023-01-30T05:20:15.905Z,102070.00
2023-01-30T05:22:45.967Z,102072.56
2023-01-30T05:25:14.851Z,102071.63
2023-01-30T05:27:44.607Z,102071.63
2023-01-30T05:30:13.955Z,102082.03
2023-01-30T05:32:42.555Z,102080.34
2023-01-30T05:35:11.467Z,102063.78
2023-01-30T05:37:41.509Z,102058.75
2023-01-30T05:40:11.907Z,102069.38
2023-01-30T05:42:40.386Z,102059.97
2023-01-30T05:45:10.541Z,102063.59
2023-01-30T05:47:39.045Z,102067.16
2023-01-30T05:50:08.408Z,102064.69
2023-01-30T05:52:37.032Z,102066.53
2023-01-30T05:55:08.762Z,102086.69
2023-01-30T05:57:37.375Z,102078.91
2023-01-30T06:00:11.304Z,102076.41
2023-01-30T06:02:39.927Z,102079.97
2023-01-30T06:05:08.993Z,102080.88
2023-01-30T06:07:37.553Z,102086.13
2023-01-30T06:10:08.185Z,102092.97
2023-01-30T06:12:37.726Z,102091.97
2023-01-30T06:15:08.557Z,102087.47
2023-01-30T06:17:37.103Z,102102.31
2023-01-30T06:20:06.441Z,102090.16
2023-01-30T06:22:35.181Z,102086.88
2023-01-30T06:25:04.253Z,102092.28
2023-01-30T06:27:34.933Z,102104.63
2023-01-30T06:30:03.935Z,102089.03
2023-01-30T06:32:32.880Z,102099.63
2023-01-30T06:35:01.478Z,102100.75
2023-01-30T06:37:30.038Z,102109.66
2023-01-30T06:39:58.608Z,102113.22
2023-01-30T06:42:27.312Z,102109.06
2023-01-30T06:44:59.462Z,102112.69
2023-01-30T06:47:29.012Z,102116.28
2023-01-30T06:49:58.499Z,102109.41
2023-01-30T06:52:27.015Z,102117.31
2023-01-30T06:54:55.738Z,102119.19
2023-01-30T06:57:25.274Z,102112.34
2023-01-30T06:59:54.986Z,102118.63
2023-01-30T07:02:25.032Z,102121.38
2023-01-30T07:04:54.493Z,102117.97
2023-01-30T07:07:23.118Z,102127.66
2023-01-30T07:10:06.882Z,102126.97
2023-01-30T07:12:37.697Z,102133.13
2023-01-30T07:15:08.669Z,102141.94
2023-01-30T07:17:39.043Z,102145.47
2023-01-30T07:20:09.686Z,102150.75
2023-01-30T07:22:40.353Z,102156.91
2023-01-30T07:25:09.934Z,102158.66
2023-01-30T07:27:38.535Z,102161.28
2023-01-30T07:30:08.425Z,102162.38
2023-01-30T07:32:38.855Z,102163.31
2023-01-30T07:35:08.408Z,102165.09
2023-01-30T07:37:38.340Z,102176.50
2023-01-30T07:40:10.821Z,102179.19
2023-01-30T07:42:39.466Z,102180.94
2023-01-30T07:45:09.314Z,102193.94
2023-01-30T07:47:39.459Z,102200.84
2023-01-30T07:50:09.190Z,102201.56
2023-01-30T07:52:38.190Z,102204.97
2023-01-30T07:55:08.443Z,102212.75
2023-01-30T07:57:36.956Z,102209.25
2023-01-30T08:00:06.838Z,102216.19
2023-01-30T08:02:35.303Z,102221.22
2023-01-30T08:05:06.425Z,102207.34
2023-01-30T08:07:35.075Z,102217.75
2023-01-30T08:10:04.190Z,102214.16
2023-01-30T08:12:32.936Z,102207.81
2023-01-30T08:15:01.474Z,102217.22
2023-01-30T08:17:30.833Z,102231.66
2023-01-30T08:19:59.499Z,102212.47
2023-01-30T08:22:30.909Z,102220.22
2023-01-30T08:24:59.480Z,102221.19
2023-01-30T08:27:28.037Z,102227.28
2023-01-30T08:29:57.749Z,102228.06
2023-01-30T08:32:27.611Z,102221.09
2023-01-30T08:34:57.689Z,102228.88
2023-01-30T08:37:26.279Z,102229.72
2023-01-30T08:39:56.142Z,102227.88
2023-01-30T08:42:24.574Z,102226.00
2023-01-30T08:44:53.031Z,102217.97
2023-01-30T08:47:21.510Z,102221.41
2023-01-30T08:49:51.706Z,102227.34
2023-01-30T08:52:22.491Z,102224.56
2023-01-30T08:54:51.300Z,102221.94
2023-01-30T08:57:21.664Z,102224.44
2023-01-30T08:59:51.522Z,102220.84
2023-01-30T09:02:20.226Z,102232.88
2023-01-30T09:04:48.599Z,102237.16
2023-01-30T09:07:17.259Z,102232.91
2023-01-30T09:09:46.158Z,102249.50
2023-01-30T09:12:14.792Z,102245.06
2023-01-30T09:14:46.129Z,102251.16
2023-01-30T09:17:15.224Z,102247.75
2023-01-30T09:19:43.539Z,102242.50
2023-01-30T09:22:12.148Z,102252.06
2023-01-30T09:24:40.739Z,102240.75
2023-01-30T09:27:09.352Z,102260.72
2023-01-30T09:29:37.800Z,102256.41
2023-01-30T09:32:08.860Z,102257.13
2023-01-30T09:34:37.466Z,102256.34
2023-01-30T09:37:06.406Z,102266.09
2023-01-30T09:39:34.906Z,102274.78
2023-01-30T09:42:27.179Z,102274.78
2023-01-30T09:45:27.769Z,102267.66
2023-01-30T09:48:08.501Z,102281.47
2023-01-30T09:50:54.778Z,102281.41
2023-01-30T09:53:33.271Z,102290.97
2023-01-30T09:56:02.578Z,102281.41
2023-01-30T09:58:43.071Z,102278.94
2023-01-30T10:01:22.085Z,102295.50
2023-01-30T10:04:03.034Z,102297.25
2023-01-30T10:06:36.785Z,102310.22
2023-01-30T10:09:17.005Z,102322.38
2023-01-30T10:11:56.788Z,102316.25
2023-01-30T10:14:44.834Z,102330.91
2023-01-30T10:17:33.424Z,102326.53
2023-01-30T10:20:18.655Z,102328.16
2023-01-30T10:22:58.774Z,102314.19
2023-01-30T10:25:34.445Z,102316.03
2023-01-30T10:28:11.517Z,102316.91
2023-01-30T10:30:41.207Z,102328.31
2023-01-30T10:33:17.556Z,102335.31
2023-01-30T10:35:57.763Z,102330.97
2023-01-30T10:38:34.949Z,102339.75
2023-01-30T10:41:11.970Z,102335.31
2023-01-30T10:43:45.430Z,102322.13
2023-01-30T10:46:30.149Z,102320.31
2023-01-30T10:49:04.435Z,102318.47
2023-01-30T10:51:48.509Z,102321.81
2023-01-30T10:54:23.962Z,102319.94
2023-01-30T10:57:02.697Z,102321.63
2023-01-30T10:59:43.528Z,102332.75
2023-01-30T11:02:26.494Z,102314.28
2023-01-30T11:05:00.753Z,102303.59
2023-01-30T11:07:33.652Z,102304.22
2023-01-30T11:10:03.353Z,102311.88
2023-01-30T11:12:32.126Z,102312.59
2023-01-30T11:15:04.507Z,102314.22
2023-01-30T11:17:37.650Z,102303.66
2023-01-30T11:20:15.173Z,102308.00
2023-01-30T11:22:55.412Z,102312.19
2023-01-30T11:25:24.729Z,102306.94
2023-01-30T11:27:58.278Z,102318.13
2023-01-30T11:30:31.287Z,102309.28
2023-01-30T11:33:14.949Z,102323.25
2023-01-30T11:35:53.982Z,102311.84
2023-01-30T11:38:26.874Z,102325.53
2023-01-30T11:41:05.840Z,102317.59
2023-01-30T11:43:37.430Z,102312.19
2023-01-30T11:46:09.403Z,102307.88
2023-01-30T11:49:32.460Z,102320.84
2023-01-30T11:51:39.065Z,102313.69
2023-01-30T11:54:16.176Z,102311.28
2023-01-30T11:56:51.803Z,102305.88
2023-01-30T11:59:27.129Z,102317.53
2023-01-30T12:02:06.078Z,102310.31
2023-01-30T12:04:35.390Z,102313.88
2023-01-30T12:07:10.354Z,102321.53
2023-01-30T12:09:41.152Z,102321.16
2023-01-30T12:12:29.318Z,102312.78
2023-01-30T12:15:08.362Z,102314.94
2023-01-30T12:17:45.865Z,102313.41
2023-01-30T12:20:23.841Z,102318.97
2023-01-30T12:23:01.703Z,102303.41
2023-01-30T12:25:40.360Z,102300.94
2023-01-30T12:28:17.306Z,102296.09
2023-01-30T12:30:53.189Z,102297.91
2023-01-30T12:33:21.956Z,102305.38
2023-01-30T12:36:03.699Z,102299.66
2023-01-30T12:38:52.159Z,102308.69
2023-01-30T12:41:48.535Z,102294.75
2023-01-30T12:44:42.745Z,102296.47
2023-01-30T12:47:39.552Z,102292.81
2023-01-30T12:50:22.592Z,102284.91
2023-01-30T12:53:11.645Z,102271.72
2023-01-30T12:55:50.187Z,102271.44
2023-01-30T12:58:28.174Z,102263.16
2023-01-30T13:01:09.382Z,102252.88
2023-01-30T13:03:44.985Z,102267.88
2023-01-30T13:06:34.258Z,102271.97
2023-01-30T13:09:17.719Z,102248.16
2023-01-30T13:11:56.666Z,102253.78
2023-01-30T13:14:35.627Z,102256.09
2023-01-30T13:17:30.377Z,102252.59
2023-01-30T13:20:05.441Z,102254.28
2023-01-30T13:22:41.280Z,102269.38
2023-01-30T13:25:23.294Z,102263.59
2023-01-30T13:27:57.958Z,102255.94
2023-01-30T13:30:29.247Z,102256.94
2023-01-30T13:33:00.869Z,102256.19
2023-01-30T13:35:34.623Z,102248.31
2023-01-30T13:38:06.076Z,102250.28
2023-01-30T13:40:41.518Z,102259.88
2023-01-30T13:43:17.398Z,102250.19
2023-01-30T13:45:50.762Z,102251.88
2023-01-30T13:48:41.785Z,102248.50
2023-01-30T13:51:25.430Z,102244.81
2023-01-30T13:54:00.594Z,102243.97
2023-01-30T13:56:42.211Z,102248.19
2023-01-30T13:59:24.251Z,102236.75
2023-01-30T14:02:18.550Z,102228.38
2023-01-30T14:04:52.184Z,102227.16
2023-01-30T14:07:32.724Z,102228.69
2023-01-30T14:10:14.033Z,102217.72
2023-01-30T14:12:45.212Z,102216.88
2023-01-30T14:15:29.287Z,102206.81
2023-01-30T14:18:07.665Z,102209.00
2023-01-30T14:20:38.076Z,102204.50
2023-01-30T14:23:08.663Z,102216.16
2023-01-30T14:25:49.951Z,102216.22
2023-01-30T14:28:48.261Z,102231.09
2023-01-30T14:31:56.089Z,102245.84
2023-01-30T14:34:51.237Z,102213.63
2023-01-30T14:37:57.246Z,102229.56
2023-01-30T14:40:34.613Z,102219.94
2023-01-30T14:43:35.999Z,102215.41
2023-01-30T14:46:08.958Z,102219.94
2023-01-30T14:48:47.149Z,102242.00
2023-01-30T14:51:26.408Z,102231.47
2023-01-30T14:53:59.767Z,102247.72
2023-01-30T14:56:43.227Z,102238.19
2023-01-30T14:59:23.183Z,102240.03
2023-01-30T15:02:06.505Z,102241.88
2023-01-30T15:04:41.955Z,102245.56
2023-01-30T15:07:17.021Z,102237.59
2023-01-30T15:09:54.248Z,102243.22
2023-01-30T15:13:04.784Z,102243.34
2023-01-30T15:15:41.979Z,102243.31
2023-01-30T15:18:26.705Z,102248.78
2023-01-30T15:21:16.711Z,102247.91
2023-01-30T15:24:06.471Z,102234.78
2023-01-30T15:26:48.479Z,102249.72
2023-01-30T15:29:56.384Z,102254.06
2023-01-30T15:32:29.181Z,102242.69
2023-01-30T15:35:00.184Z,102227.03
2023-01-30T15:37:36.294Z,102223.41
2023-01-30T15:40:31.192Z,102225.13
2023-01-30T15:43:16.818Z,102223.41
2023-01-30T15:46:01.943Z,102222.75
2023-01-30T15:48:46.668Z,102232.53
2023-01-30T15:51:20.947Z,102235.13
2023-01-30T15:53:50.495Z,102227.28
2023-01-30T15:56:25.160Z,102222.56
2023-01-30T15:58:54.317Z,102216.81
2023-01-30T16:01:24.169Z,102217.78
2023-01-30T16:03:53.850Z,102221.34
2023-01-30T16:06:32.986Z,102218.81
2023-01-30T16:09:04.070Z,102221.47
2023-01-30T16:11:42.284Z,102208.19
2023-01-30T16:14:14.575Z,102212.59
2023-01-30T16:16:49.120Z,102218.53
2023-01-30T16:19:28.568Z,102221.34
2023-01-30T16:22:00.436Z,102214.38
2023-01-30T16:24:32.319Z,102221.41
2023-01-30T16:27:04.714Z,102222.50
2023-01-30T16:29:38.913Z,102212.91
2023-01-30T16:32:14.994Z,102220.88
2023-01-30T16:34:43.580Z,102225.19
2023-01-30T16:37:28.641Z,102218.34
2023-01-30T16:40:05.538Z,102216.72
2023-01-30T16:42:36.290Z,102209.72
2023-01-30T16:45:52.962Z,102210.41
2023-01-30T16:48:33.593Z,102221.13
2023-01-30T16:51:21.028Z,102223.03
2023-01-30T16:53:55.049Z,102223.03
2023-01-30T16:56:24.122Z,102215.22
2023-01-30T16:58:57.789Z,102211.84
2023-01-30T17:01:39.099Z,102212.78
2023-01-30T17:04:18.890Z,102222.38
2023-01-30T17:06:54.811Z,102229.41
2023-01-30T17:09:46.239Z,102223.47
2023-01-30T17:12:45.554Z,102222.56
2023-01-30T17:15:34.561Z,102220.09
2023-01-30T17:18:03.995Z,102211.19
2023-01-30T17:20:45.847Z,102216.59
2023-01-30T17:23:19.106Z,102212.19
2023-01-30T17:25:49.737Z,102209.72
2023-01-30T17:28:24.404Z,102215.88
2023-01-30T17:30:54.875Z,102210.63
2023-01-30T17:33:23.447Z,102208.81
2023-01-30T17:35:52.070Z,102203.66
2023-01-30T17:38:21.560Z,102197.63
2023-01-30T17:40:51.031Z,102203.47
2023-01-30T17:43:20.789Z,102190.59
2023-01-30T17:45:50.347Z,102187.09
2023-01-30T17:48:21.647Z,102184.47
2023-01-30T17:50:50.346Z,102190.66
2023-01-30T17:53:19.757Z,102185.50
2023-01-30T17:55:48.794Z,102177.56
2023-01-30T17:58:23.576Z,102180.31
2023-01-30T18:01:00.994Z,102177.63
2023-01-30T18:03:33.173Z,102169.09
2023-01-30T18:06:03.135Z,102179.50
2023-01-30T18:08:31.796Z,102177.63
2023-01-30T18:11:00.557Z,102166.94
2023-01-30T18:13:28.932Z,102157.53
2023-01-30T18:16:01.342Z,102164.41
2023-01-30T18:18:31.545Z,102146.88
2023-01-30T18:21:03.754Z,102143.72
2023-01-30T18:23:34.737Z,102148.16
2023-01-30T18:26:03.490Z,102144.38
2023-01-30T18:28:33.298Z,102130.41
2023-01-30T18:31:02.071Z,102136.59
2023-01-30T18:33:32.018Z,102125.16
2023-01-30T18:36:06.206Z,102117.44
2023-01-30T18:38:35.119Z,102117.63
2023-01-30T18:41:09.128Z,102111.34
2023-01-30T18:43:40.267Z,102109.66
2023-01-30T18:46:10.450Z,102114.00
2023-01-30T18:48:39.146Z,102113.13
2023-01-30T18:51:18.247Z,102111.47
2023-01-30T18:53:56.961Z,102109.53
2023-01-30T18:56:27.277Z,102117.63
2023-01-30T18:58:56.562Z,102114.16
2023-01-30T19:01:27.348Z,102122.22
2023-01-30T19:04:05.986Z,102131.72
2023-01-30T19:06:37.667Z,102122.72
2023-01-30T19:09:07.433Z,102128.59
2023-01-30T19:11:53.401Z,102124.38
2023-01-30T19:14:23.186Z,102127.88
2023-01-30T19:16:54.958Z,102123.34
2023-01-30T19:19:23.963Z,102112.03
2023-01-30T19:21:54.074Z,102110.69
2023-01-30T19:24:27.790Z,102118.66
2023-01-30T19:26:56.977Z,102111.47
2023-01-30T19:29:26.670Z,102101.78
2023-01-30T19:32:04.139Z,102100.34
2023-01-30T19:34:34.730Z,102091.75
2023-01-30T19:37:10.848Z,102088.44
2023-01-30T19:39:42.534Z,102099.69
2023-01-30T19:42:11.123Z,102077.94
2023-01-30T19:44:41.245Z,102068.28
2023-01-30T19:47:11.080Z,102082.25
2023-01-30T19:49:40.654Z,102078.03
2023-01-30T19:52:10.815Z,102076.59
2023-01-30T19:54:39.526Z,102060.69
2023-01-30T19:57:10.150Z,102076.59
2023-01-30T19:59:39.638Z,102067.88
2023-01-30T20:02:11.586Z,102066.75
2023-01-30T20:04:41.308Z,102070.13
2023-01-30T20:07:14.370Z,102056.66
2023-01-30T20:09:45.917Z,102055.00
2023-01-30T20:12:16.306Z,102045.28
2023-01-30T20:14:44.983Z,102041.72
2023-01-30T20:17:14.710Z,102043.50
2023-01-30T20:19:45.551Z,102042.28
2023-01-30T20:22:16.483Z,102033.25
2023-01-30T20:24:45.220Z,102031.81
2023-01-30T20:27:13.976Z,102023.91
2023-01-30T20:29:44.461Z,102029.41
2023-01-30T20:32:13.846Z,102026.75
2023-01-30T20:34:42.600Z,102026.44
2023-01-30T20:37:11.418Z,102022.03
2023-01-30T20:39:41.563Z,101999.34
2023-01-30T20:42:10.039Z,102013.38
2023-01-30T20:44:39.934Z,102003.63
2023-01-30T20:47:09.929Z,101994.81
2023-01-30T20:49:38.678Z,101994.09
2023-01-30T20:52:08.406Z,101997.31
2023-01-30T20:54:38.328Z,102000.69
2023-01-30T20:57:08.445Z,101994.50
2023-01-30T20:59:37.367Z,101991.66
2023-01-30T21:02:12.005Z,101990.53
2023-01-30T21:04:40.602Z,101981.69
2023-01-30T21:07:08.965Z,101999.88
2023-01-30T21:09:40.504Z,101982.09
2023-01-30T21:12:11.777Z,101977.97
2023-01-30T21:14:40.508Z,101981.56
2023-01-30T21:17:09.115Z,101979.81
2023-01-30T21:19:38.374Z,101988.34
2023-01-30T21:22:12.546Z,101972.63
2023-01-30T21:24:40.976Z,101977.59
2023-01-30T21:27:11.134Z,101980.31
2023-01-30T21:29:40.409Z,101995.47
2023-01-30T21:32:09.045Z,101992.22
2023-01-30T21:34:39.234Z,101985.59
2023-01-30T21:37:25.652Z,101982.31
2023-01-30T21:40:11.672Z,101973.72
2023-01-30T21:42:58.807Z,101968.59
2023-01-30T21:45:27.688Z,101971.31
2023-01-30T21:47:56.762Z,101967.88
2023-01-30T21:50:25.406Z,101965.25
2023-01-30T21:52:54.027Z,101964.31
2023-01-30T21:55:22.588Z,101959.13
2023-01-30T21:57:55.551Z,101962.28
2023-01-30T22:00:24.238Z,101954.03
2023-01-30T22:02:52.894Z,101943.31
2023-01-30T22:05:21.878Z,101951.66
2023-01-30T22:07:52.080Z,101935.72
2023-01-30T22:10:20.769Z,101927.06
2023-01-30T22:12:49.330Z,101925.50
2023-01-30T22:15:21.271Z,101934.22
2023-01-30T22:17:50.576Z,101917.66
2023-01-30T22:20:19.377Z,101923.28
2023-01-30T22:22:49.333Z,101917.94
2023-01-30T22:25:18.375Z,101926.47
2023-01-30T22:27:48.255Z,101928.53
2023-01-30T22:30:19.118Z,101935.56
2023-01-30T22:32:47.780Z,101938.13
2023-01-30T22:35:16.608Z,101943.31
2023-01-30T22:37:45.022Z,101924.13
2023-01-30T22:40:14.091Z,101927.72
2023-01-30T22:42:49.316Z,101913.81
2023-01-30T22:45:20.614Z,101926.09
2023-01-30T22:47:50.522Z,101908.75
2023-01-30T22:50:19.506Z,101912.38
2023-01-30T22:52:50.217Z,101898.09
2023-01-30T22:55:20.065Z,101900.78
2023-01-30T22:57:48.718Z,101899.09
2023-01-30T23:00:18.076Z,101906.13
2023-01-30T23:02:49.226Z,101912.31
2023-01-30T23:05:18.083Z,101923.41
2023-01-30T23:07:54.293Z,101898.78
2023-01-30T23:10:22.856Z,101895.28
2023-01-30T23:13:08.240Z,101899.81
2023-01-30T23:15:41.140Z,101896.47
2023-01-30T23:18:31.978Z,101900.03
2023-01-30T23:21:01.476Z,101887.81
2023-01-30T23:23:30.110Z,101889.72
2023-01-30T23:26:02.729Z,101889.50
2023-01-30T23:28:31.428Z,101900.88
2023-01-30T23:30:59.932Z,101888.91
2023-01-30T23:33:30.320Z,101894.44
2023-01-30T23:36:04.087Z,101896.44
2023-01-30T23:38:33.266Z,101893.72
2023-01-30T23:41:11.421Z,101899.84
2023-01-30T23:43:41.716Z,101891.75
2023-01-30T23:46:16.984Z,101884.66
2023-01-30T23:48:50.304Z,101883.38
2023-01-30T23:51:20.218Z,101864.19
2023-01-30T23:53:49.685Z,101885.00
2023-01-30T23:56:18.541Z,101889.22
2023-01-30T23:58:47.586Z,101855.94
